Time;durP1;ratioP1;P1;durP2;ratioP2;P2;SDS_P1;SDS_P2;PMS_P1;PMS_P2;Temp;Humidity;BMP_temperature;BMP_pressure;BME280_temperature;BME280_humidity;BME280_pressure;Samples;Min_cycle;Max_cycle;Signal;HPM_P1;HPM_P2
2022/12/16 00:01:12;;;;;;;;;40.75;32.00;;;;;1.92;53.64;100452.34;5060790;28;45418;-44
2022/12/16 00:03:39;;;;;;;;;34.75;32.50;;;;;1.90;53.36;100452.31;5061175;27;45353;-44
2022/12/16 00:06:06;;;;;;;;;40.50;28.75;;;;;1.91;53.72;100458.38;5060812;28;45486;-43
2022/12/16 00:08:34;;;;;;;;;43.00;32.75;;;;;1.89;53.50;100450.56;5060814;28;45170;-44
2022/12/16 00:11:00;;;;;;;;;33.00;28.25;;;;;1.89;53.68;100458.34;5060387;28;46095;-44
2022/12/16 00:13:27;;;;;;;;;39.75;34.75;;;;;1.89;53.31;100457.50;5060852;28;45331;-45
2022/12/16 00:15:53;;;;;;;;;35.25;29.25;;;;;1.88;53.75;100464.38;5076199;28;45373;-45
2022/12/16 00:18:19;;;;;;;;;36.00;31.50;;;;;1.89;53.66;100465.28;5060402;28;45304;-44
2022/12/16 00:20:50;;;;;;;;;35.50;29.00;;;;;1.85;53.49;100460.84;5060408;27;46543;-43
2022/12/16 00:23:15;;;;;;;;;42.00;32.50;;;;;1.86;53.76;100468.69;5060531;28;45226;-45
2022/12/16 00:25:45;;;;;;;;;35.25;30.25;;;;;1.84;53.72;100472.94;5060327;28;45409;-44
2022/12/16 00:28:12;;;;;;;;;41.25;36.75;;;;;1.84;53.40;100480.72;5060276;28;45261;-45
2022/12/16 00:30:38;;;;;;;;;30.75;26.75;;;;;1.82;53.48;100485.00;5076039;27;45381;-44
2022/12/16 00:33:04;;;;;;;;;38.00;34.00;;;;;1.81;53.66;100483.25;5059974;28;45255;-44
2022/12/16 00:35:29;;;;;;;;;35.00;29.75;;;;;1.81;53.73;100487.56;5055875;27;45385;-44
2022/12/16 00:37:55;;;;;;;;;34.00;30.00;;;;;1.81;53.67;100492.75;5054189;28;45432;-44
2022/12/16 00:40:21;;;;;;;;;32.75;32.50;;;;;1.79;53.63;100490.16;5059020;27;47333;-45
2022/12/16 00:42:46;;;;;;;;;41.50;38.00;;;;;1.78;53.99;100493.56;5059990;28;45248;-43
2022/12/16 00:45:12;;;;;;;;;41.50;36.00;;;;;1.77;53.78;100492.72;5076003;28;45322;-45
2022/12/16 00:47:37;;;;;;;;;40.25;38.50;;;;;1.76;53.73;100484.88;5059872;28;45376;-44
2022/12/16 00:50:03;;;;;;;;;38.25;34.25;;;;;1.75;53.79;100485.75;5060299;28;46034;-44
2022/12/16 00:52:28;;;;;;;;;31.00;26.75;;;;;1.74;53.74;100487.47;5059874;28;45355;-44
2022/12/16 00:54:53;;;;;;;;;39.75;33.25;;;;;1.74;53.64;100491.78;5060313;28;45318;-45
2022/12/16 00:57:19;;;;;;;;;34.50;31.50;;;;;1.73;53.56;100483.13;5060052;28;45226;-43
2022/12/16 00:59:45;;;;;;;;;39.75;36.25;;;;;1.70;53.76;100484.78;5059988;28;45339;-44
2022/12/16 01:02:10;;;;;;;;;42.50;32.25;;;;;1.72;53.95;100501.22;5059906;28;45323;-44
2022/12/16 01:04:36;;;;;;;;;40.50;34.75;;;;;1.70;53.66;100498.63;5059933;28;45168;-45
2022/12/16 01:07:01;;;;;;;;;40.00;33.50;;;;;1.69;53.97;100498.59;5060003;28;45220;-44
2022/12/16 01:09:27;;;;;;;;;37.00;33.75;;;;;1.68;53.73;100499.44;5075532;27;45456;-45
2022/12/16 01:11:52;;;;;;;;;35.50;33.00;;;;;1.66;53.57;100502.00;5059083;28;45238;-43
2022/12/16 01:14:18;;;;;;;;;43.75;36.00;;;;;1.68;53.94;100517.56;5060147;28;45236;-44
2022/12/16 01:16:43;;;;;;;;;40.75;34.75;;;;;1.66;53.77;100509.78;5059688;28;45604;-46
2022/12/16 01:19:09;;;;;;;;;38.75;35.75;;;;;1.64;53.70;100518.38;5059577;28;46553;-45
2022/12/16 01:21:34;;;;;;;;;39.25;33.50;;;;;1.62;54.13;100519.22;5059689;28;45288;-44
2022/12/16 01:24:00;;;;;;;;;49.75;40.25;;;;;1.64;53.94;100515.78;5057906;28;45308;-44
2022/12/16 01:26:25;;;;;;;;;47.00;42.00;;;;;1.61;53.83;100514.88;5052208;28;45463;-43
2022/12/16 01:28:50;;;;;;;;;48.00;39.25;;;;;1.61;54.19;100521.75;5059478;28;46274;-44
2022/12/16 01:31:18;;;;;;;;;45.00;39.25;;;;;1.62;53.79;100528.69;5059521;28;45323;-46
2022/12/16 01:33:43;;;;;;;;;45.75;38.50;;;;;1.60;53.99;100536.44;5059489;28;45309;-43
2022/12/16 01:36:09;;;;;;;;;37.25;30.50;;;;;1.61;54.05;100539.88;5059564;28;45568;-43
2022/12/16 01:38:35;;;;;;;;;56.50;43.00;;;;;1.60;53.96;100541.63;5059465;28;45298;-44
2022/12/16 01:41:03;;;;;;;;;39.75;36.00;;;;;1.60;53.84;100553.72;5074915;27;45419;-43
2022/12/16 01:43:31;;;;;;;;;45.50;36.75;;;;;1.60;53.80;100553.72;5075306;28;45261;-43
2022/12/16 01:46:02;;;;;;;;;45.25;38.00;;;;;1.58;54.10;100551.06;5059445;28;45568;-44
2022/12/16 01:49:00;;;;;;;;;56.50;42.00;;;;;1.58;54.13;100557.97;5059343;28;45295;-44
2022/12/16 01:51:31;;;;;;;;;49.00;41.00;;;;;1.56;54.19;100564.81;5055905;28;45421;-43
2022/12/16 01:54:07;;;;;;;;;42.00;38.50;;;;;1.55;54.03;100563.97;5059590;28;45184;-46
2022/12/16 01:56:36;;;;;;;;;41.50;37.75;;;;;1.52;53.79;100570.78;5059241;27;45253;-44
2022/12/16 01:59:04;;;;;;;;;50.00;41.50;;;;;1.53;53.84;100578.59;5074869;28;47263;-44
2022/12/16 02:01:29;;;;;;;;;52.50;41.75;;;;;1.51;54.29;100582.88;5058008;27;45261;-44
2022/12/16 02:04:00;;;;;;;;;46.75;39.25;;;;;1.49;54.02;100588.88;5074734;27;45228;-43
2022/12/16 02:06:26;;;;;;;;;48.50;42.25;;;;;1.48;54.14;100593.16;5059172;28;45334;-44
2022/12/16 02:08:55;;;;;;;;;46.75;39.75;;;;;1.47;54.10;100601.78;5059091;28;46307;-44
2022/12/16 02:11:38;;;;;;;;;41.50;33.75;;;;;1.45;53.95;100603.47;5058879;28;45353;-43
2022/12/16 02:14:39;;;;;;;;;58.50;44.50;;;;;1.45;54.08;100608.66;5074792;28;45322;-43
2022/12/16 02:17:24;;;;;;;;;51.75;41.75;;;;;1.41;54.27;100610.31;5023838;28;45788;-45
2022/12/16 02:20:08;;;;;;;;;49.00;40.00;;;;;1.40;54.06;100607.69;5059110;28;46214;-45
2022/12/16 02:23:25;;;;;;;;;46.25;42.50;;;;;1.38;54.05;100606.78;5074627;28;45333;-44
2022/12/16 02:26:28;;;;;;;;;51.75;42.50;;;;;1.36;54.44;100608.44;5000199;28;45388;-44
2022/12/16 02:29:09;;;;;;;;;48.00;40.25;;;;;1.35;54.20;100611.91;4983866;28;45258;-42
2022/12/16 02:31:46;;;;;;;;;54.50;44.50;;;;;1.33;54.21;100608.41;5055056;28;45472;-42
2022/12/16 02:34:41;;;;;;;;;55.00;45.25;;;;;1.29;54.40;100597.94;5062120;28;45360;-45
2022/12/16 02:37:13;;;;;;;;;50.50;40.50;;;;;1.30;54.52;100601.44;5077943;28;45335;-42
2022/12/16 02:39:48;;;;;;;;;57.25;44.25;;;;;1.27;54.68;100601.34;5062046;28;45276;-42
2022/12/16 02:42:30;;;;;;;;;53.75;46.50;;;;;1.29;54.54;100605.72;5061935;28;45323;-42
2022/12/16 02:45:08;;;;;;;;;58.50;46.50;;;;;1.27;54.30;100604.84;5061888;28;45468;-42
2022/12/16 02:47:33;;;;;;;;;49.50;42.25;;;;;1.26;54.58;100599.63;5062067;28;45329;-42
2022/12/16 02:49:59;;;;;;;;;53.75;42.50;;;;;1.24;54.54;100593.53;5062010;28;45573;-42
2022/12/16 02:52:29;;;;;;;;;53.00;44.75;;;;;1.25;54.49;100596.16;5061810;28;46119;-43
2022/12/16 02:55:00;;;;;;;;;52.50;43.50;;;;;1.26;54.69;100603.09;5062038;28;45411;-46
2022/12/16 02:57:34;;;;;;;;;55.75;44.25;;;;;1.25;54.51;100603.06;5061952;28;45505;-42
2022/12/16 03:00:06;;;;;;;;;58.75;43.50;;;;;1.25;54.70;100610.81;5062046;28;45372;-42
2022/12/16 03:02:54;;;;;;;;;61.25;47.75;;;;;1.23;54.69;100613.38;5061311;28;45407;-42
2022/12/16 03:05:30;;;;;;;;;64.25;46.25;;;;;1.23;54.72;100610.78;5061730;28;45229;-43
2022/12/16 03:07:59;;;;;;;;;47.75;42.50;;;;;1.23;54.44;100617.66;5061972;28;45336;-43
2022/12/16 03:10:29;;;;;;;;;54.75;46.25;;;;;1.22;54.46;100614.22;5061585;28;45513;-42
2022/12/16 03:12:58;;;;;;;;;67.00;51.75;;;;;1.22;54.78;100616.81;5061473;28;46412;-43
2022/12/16 03:15:27;;;;;;;;;58.00;46.50;;;;;1.21;54.91;100619.34;5061590;28;45165;-42
2022/12/16 03:17:54;;;;;;;;;62.00;48.25;;;;;1.20;54.65;100623.66;5061828;28;45292;-42
2022/12/16 03:20:29;;;;;;;;;58.50;47.50;;;;;1.17;54.64;100618.44;5061414;28;45331;-45
2022/12/16 03:23:00;;;;;;;;;60.25;46.75;;;;;1.16;55.10;100619.25;5077034;28;47417;-42
2022/12/16 03:25:28;;;;;;;;;52.50;44.50;;;;;1.18;55.07;100622.72;5061315;28;45496;-42
2022/12/16 03:28:20;;;;;;;;;53.75;46.50;;;;;1.18;54.95;100624.47;5061484;27;45259;-42
2022/12/16 03:30:52;;;;;;;;;59.50;47.25;;;;;1.17;54.75;100620.13;5060506;28;45678;-43
2022/12/16 03:33:27;;;;;;;;;57.75;46.00;;;;;1.16;54.73;100626.13;5060830;28;45406;-42
2022/12/16 03:36:06;;;;;;;;;60.00;46.25;;;;;1.15;54.94;100624.41;5061022;28;45291;-42
2022/12/16 03:38:33;;;;;;;;;58.00;46.00;;;;;1.15;54.76;100627.84;5061198;28;45510;-42
2022/12/16 03:41:00;;;;;;;;;63.25;47.75;;;;;1.13;54.89;100625.25;5061375;28;45371;-42
2022/12/16 03:43:26;;;;;;;;;63.50;48.00;;;;;1.12;54.99;100630.41;5060923;28;45297;-42
2022/12/16 03:45:56;;;;;;;;;63.25;50.50;;;;;1.15;54.79;100634.75;5061325;28;45307;-43
2022/12/16 03:48:24;;;;;;;;;60.50;48.25;;;;;1.13;54.94;100640.78;5060918;28;45386;-43
2022/12/16 03:50:49;;;;;;;;;64.00;48.00;;;;;1.14;55.07;100644.22;5060961;28;45324;-42
2022/12/16 03:53:15;;;;;;;;;61.75;50.00;;;;;1.14;54.98;100639.06;5076342;28;46297;-43
2022/12/16 03:55:40;;;;;;;;;54.50;43.50;;;;;1.13;55.01;100645.94;5061094;28;45204;-43
2022/12/16 03:58:06;;;;;;;;;67.25;47.50;;;;;1.12;55.16;100643.34;5060962;28;45231;-43
2022/12/16 04:00:31;;;;;;;;;59.75;46.25;;;;;1.13;55.01;100647.66;5061023;28;45326;-43
2022/12/16 04:02:57;;;;;;;;;59.00;47.25;;;;;1.10;54.84;100639.81;5060465;28;45292;-42
2022/12/16 04:05:22;;;;;;;;;63.75;52.00;;;;;1.11;54.99;100650.22;5060947;28;45216;-42
2022/12/16 04:07:47;;;;;;;;;61.00;47.25;;;;;1.12;55.19;100645.94;5060726;28;45270;-42
2022/12/16 04:10:13;;;;;;;;;61.25;47.00;;;;;1.09;54.93;100649.28;5060910;28;45257;-42
2022/12/16 04:27:23;;;;;;;;;63.75;51.50;;;;;1.03;55.17;100664.72;5060271;28;45216;-42
2022/12/16 04:29:21;;;;;;;;;63.75;47.75;;;;;1.03;55.36;100669.88;5060515;27;45495;-43
2022/12/16 04:31:48;;;;;;;;;58.75;46.50;;;;;1.03;55.47;100682.81;5060173;28;45446;-42
2022/12/16 04:34:25;;;;;;;;;62.00;48.50;;;;;1.02;55.38;100681.06;5060126;28;46391;-44
